Time;durP1;ratioP1;P1;durP2;ratioP2;P2;SDS_P1;SDS_P2;PMS_P1;PMS_P2;Temp;Humidity;BMP_temperature;BMP_pressure;BME280_temperature;BME280_humidity;BME280_pressure;Samples;Min_cycle;Max_cycle;Signal;HPM_P1;HPM_P2
2021/05/02 00:02:12;;;;;;;14.07;7.13;;;;;;;;;;5071663;28;20436;-69
2021/05/02 00:04:38;;;;;;;13.77;8.43;;;;;;;;;;5072378;28;20492;-70
2021/05/02 00:07:04;;;;;;;11.87;7.93;;;;;;;;;;5069732;28;20449;-70
2021/05/02 00:09:30;;;;;;;17.40;8.73;;;;;;;;;;5071365;28;20426;-70
2021/05/02 00:11:57;;;;;;;13.83;8.40;;;;;;;;;;5071658;28;20430;-71
2021/05/02 00:14:23;;;;;;;12.97;8.17;;;;;;;;;;5072293;28;20413;-69
2021/05/02 00:16:51;;;;;;;14.70;7.40;;;;;;;;;;5070468;28;20460;-70
2021/05/02 00:19:19;;;;;;;10.10;6.53;;;;;;;;;;5072661;28;20496;-70
2021/05/02 00:21:45;;;;;;;9.23;6.50;;;;;;;;;;5071342;28;20465;-69
2021/05/02 00:24:11;;;;;;;7.73;5.93;;;;;;;;;;5072681;28;20483;-69
2021/05/02 00:26:37;;;;;;;8.30;5.60;;;;;;;;;;5071184;28;20967;-69
2021/05/02 00:29:04;;;;;;;19.63;6.33;;;;;;;;;;5072197;28;20940;-69
2021/05/02 00:31:30;;;;;;;9.30;6.00;;;;;;;;;;5071235;28;20782;-69
2021/05/02 00:33:56;;;;;;;13.33;6.70;;;;;;;;;;5072497;28;20431;-69
2021/05/02 00:36:22;;;;;;;12.10;7.50;;;;;;;;;;5070917;28;20609;-69
2021/05/02 00:38:48;;;;;;;13.10;8.43;;;;;;;;;;5072293;28;20474;-69
2021/05/02 00:41:21;;;;;;;11.27;8.03;;;;;;;;;;5070765;28;20457;-69
2021/05/02 00:43:59;;;;;;;13.07;8.53;;;;;;;;;;5069736;28;20521;-69
2021/05/02 00:46:33;;;;;;;13.43;8.07;;;;;;;;;;5070944;28;20446;-69
2021/05/02 00:49:03;;;;;;;13.97;8.43;;;;;;;;;;5048774;28;20429;-69
2021/05/02 00:51:31;;;;;;;13.30;8.77;;;;;;;;;;5064058;28;20513;-69
2021/05/02 00:53:57;;;;;;;14.03;7.87;;;;;;;;;;5075762;28;20405;-71
2021/05/02 00:56:24;;;;;;;11.60;8.30;;;;;;;;;;5075215;28;20504;-71
2021/05/02 00:58:50;;;;;;;12.50;7.93;;;;;;;;;;5075681;28;20411;-71
2021/05/02 01:01:19;;;;;;;15.77;8.50;;;;;;;;;;5074805;28;20457;-70
2021/05/02 01:03:46;;;;;;;14.70;8.67;;;;;;;;;;5075354;28;20448;-70
2021/05/02 01:06:14;;;;;;;11.00;7.07;;;;;;;;;;5074256;28;20826;-70
2021/05/02 01:08:41;;;;;;;10.03;7.20;;;;;;;;;;5075276;28;20412;-71
2021/05/02 01:11:10;;;;;;;9.50;6.37;;;;;;;;;;5074226;28;20439;-71
2021/05/02 01:13:37;;;;;;;9.43;7.43;;;;;;;;;;5075449;28;20429;-71
2021/05/02 01:16:05;;;;;;;12.07;7.30;;;;;;;;;;5073133;28;20506;-71
2021/05/02 01:18:31;;;;;;;10.50;6.90;;;;;;;;;;5075262;28;20817;-71
2021/05/02 01:20:57;;;;;;;8.43;5.90;;;;;;;;;;5074346;28;20459;-71
2021/05/02 01:23:25;;;;;;;13.17;6.20;;;;;;;;;;5075998;28;20457;-71
2021/05/02 01:25:53;;;;;;;9.83;5.70;;;;;;;;;;5077232;28;20760;-71
2021/05/02 01:28:19;;;;;;;8.87;5.80;;;;;;;;;;5078520;28;20397;-71
2021/05/02 01:30:45;;;;;;;7.77;4.93;;;;;;;;;;5075409;28;20531;-71
2021/05/02 01:33:11;;;;;;;9.43;6.00;;;;;;;;;;5057635;28;20419;-71
2021/05/02 01:35:37;;;;;;;9.43;6.10;;;;;;;;;;5065770;28;20466;-71
2021/05/02 01:38:04;;;;;;;7.23;4.90;;;;;;;;;;5076040;28;20823;-70
2021/05/02 01:40:30;;;;;;;5.33;4.03;;;;;;;;;;5074730;28;20481;-71
2021/05/02 01:42:56;;;;;;;7.20;4.80;;;;;;;;;;5054957;28;20883;-70
2021/05/02 01:45:22;;;;;;;5.23;4.00;;;;;;;;;;5055273;28;20852;-70
2021/05/02 01:47:58;;;;;;;7.83;4.30;;;;;;;;;;5073501;28;20456;-70
2021/05/02 01:50:26;;;;;;;4.53;3.20;;;;;;;;;;5073307;28;20429;-70
2021/05/02 01:52:53;;;;;;;4.27;3.20;;;;;;;;;;5065512;28;20427;-71
2021/05/02 01:55:19;;;;;;;4.20;3.23;;;;;;;;;;5054303;28;20873;-71
2021/05/02 01:57:47;;;;;;;4.90;3.73;;;;;;;;;;5055088;28;20542;-71
2021/05/02 02:00:25;;;;;;;4.60;3.00;;;;;;;;;;5054742;28;20791;-70
2021/05/02 02:02:51;;;;;;;3.40;2.90;;;;;;;;;;5066626;28;20503;-70
2021/05/02 02:05:19;;;;;;;5.10;3.40;;;;;;;;;;5074593;28;20524;-70
2021/05/02 02:07:45;;;;;;;3.40;2.83;;;;;;;;;;5073220;28;20939;-70
2021/05/02 02:10:11;;;;;;;3.80;3.10;;;;;;;;;;5074795;28;20445;-70
2021/05/02 02:12:37;;;;;;;5.07;3.33;;;;;;;;;;5073039;28;20429;-70
2021/05/02 02:15:04;;;;;;;4.27;2.60;;;;;;;;;;5074027;28;20397;-70
2021/05/02 02:17:30;;;;;;;4.20;2.30;;;;;;;;;;5072480;28;20460;-70
2021/05/02 02:19:56;;;;;;;4.70;2.97;;;;;;;;;;5073831;28;20544;-70
2021/05/02 02:22:23;;;;;;;2.70;2.00;;;;;;;;;;5073079;28;20486;-71
2021/05/02 02:24:59;;;;;;;3.70;2.67;;;;;;;;;;5073977;28;20402;-71
2021/05/02 02:27:29;;;;;;;3.50;2.73;;;;;;;;;;5072709;28;21025;-71
2021/05/02 02:30:00;;;;;;;3.50;2.20;;;;;;;;;;5054916;28;20436;-72
2021/05/02 02:32:27;;;;;;;2.47;1.70;;;;;;;;;;5072730;28;20795;-71
2021/05/02 02:34:55;;;;;;;2.93;2.07;;;;;;;;;;5073763;28;20449;-72
2021/05/02 02:37:22;;;;;;;3.10;2.10;;;;;;;;;;5050715;28;20455;-71
2021/05/02 02:39:55;;;;;;;2.53;1.90;;;;;;;;;;5053525;28;20444;-71
2021/05/02 02:42:24;;;;;;;2.80;1.90;;;;;;;;;;5060913;28;20513;-71
2021/05/02 02:44:51;;;;;;;2.50;1.80;;;;;;;;;;5073826;28;20403;-71
2021/05/02 02:47:18;;;;;;;3.03;1.93;;;;;;;;;;5072579;28;20455;-72
2021/05/02 02:49:49;;;;;;;3.17;2.10;;;;;;;;;;5073249;28;20911;-72
2021/05/02 02:52:19;;;;;;;1.63;1.30;;;;;;;;;;5070486;28;20458;-72
2021/05/02 02:55:09;;;;;;;2.80;1.80;;;;;;;;;;5073245;28;20410;-72
2021/05/02 02:57:41;;;;;;;2.50;1.80;;;;;;;;;;5057358;28;20964;-72
2021/05/02 03:00:07;;;;;;;4.80;1.90;;;;;;;;;;5053024;28;20449;-71
2021/05/02 03:02:35;;;;;;;2.33;1.70;;;;;;;;;;5061298;28;20466;-72
2021/05/02 03:05:02;;;;;;;5.00;1.90;;;;;;;;;;5073206;28;20451;-72
2021/05/02 03:07:31;;;;;;;2.10;1.67;;;;;;;;;;5054198;28;20441;-72
2021/05/02 03:09:57;;;;;;;2.30;1.77;;;;;;;;;;5073983;28;20405;-71
2021/05/02 03:12:24;;;;;;;2.13;1.80;;;;;;;;;;5072371;28;20492;-72
2021/05/02 03:14:52;;;;;;;2.27;1.67;;;;;;;;;;5072843;28;20420;-72
2021/05/02 03:17:20;;;;;;;2.20;1.53;;;;;;;;;;5071991;28;20454;-71
2021/05/02 03:19:49;;;;;;;2.37;1.50;;;;;;;;;;5072998;28;20797;-72
2021/05/02 03:22:18;;;;;;;2.13;1.57;;;;;;;;;;5066928;28;20435;-71
2021/05/02 03:24:46;;;;;;;2.70;2.00;;;;;;;;;;5052804;28;20782;-72
2021/05/02 03:27:30;;;;;;;3.63;1.90;;;;;;;;;;5063264;23;20515;-84
2021/05/02 03:29:58;;;;;;;3.10;2.30;;;;;;;;;;5057085;28;20434;-84
2021/05/02 03:32:25;;;;;;;2.37;1.83;;;;;;;;;;5048059;28;20447;-83
2021/05/02 03:34:56;;;;;;;2.60;1.63;;;;;;;;;;5058930;28;20409;-85
2021/05/02 03:37:25;;;;;;;2.20;1.60;;;;;;;;;;5057294;28;20465;-84
2021/05/02 03:39:52;;;;;;;2.53;1.70;;;;;;;;;;5059183;28;20399;-84
2021/05/02 03:42:18;;;;;;;2.67;1.70;;;;;;;;;;5056858;28;20402;-84
2021/05/02 03:44:45;;;;;;;2.20;2.00;;;;;;;;;;5039255;28;20399;-84
2021/05/02 03:47:11;;;;;;;2.00;1.40;;;;;;;;;;5039032;28;20430;-84
2021/05/02 03:49:37;;;;;;;2.50;1.63;;;;;;;;;;5057114;28;20444;-83
2021/05/02 03:52:03;;;;;;;2.30;1.70;;;;;;;;;;5058971;28;20434;-83
2021/05/02 03:54:29;;;;;;;3.10;2.17;;;;;;;;;;5053732;28;20480;-84
2021/05/02 03:56:55;;;;;;;2.83;1.80;;;;;;;;;;5038694;28;20422;-84
2021/05/02 03:59:23;;;;;;;2.83;1.90;;;;;;;;;;5055449;28;20788;-84
2021/05/02 04:01:57;;;;;;;2.60;1.80;;;;;;;;;;5058741;28;20453;-84
2021/05/02 04:04:30;;;;;;;2.00;1.70;;;;;;;;;;5057525;28;20728;-84
2021/05/02 04:07:04;;;;;;;4.67;3.20;;;;;;;;;;5081941;23;20481;-69
2021/05/02 04:09:30;;;;;;;4.43;3.27;;;;;;;;;;5028624;28;20432;-69
2021/05/02 04:11:56;;;;;;;3.97;2.97;;;;;;;;;;5032376;28;20407;-69
2021/05/02 04:14:22;;;;;;;6.50;3.40;;;;;;;;;;5030436;28;20920;-70
2021/05/02 04:17:02;;;;;;;4.17;3.50;;;;;;;;;;5032317;28;20421;-69
2021/05/02 04:19:29;;;;;;;4.57;3.47;;;;;;;;;;5031825;28;20427;-69
2021/05/02 04:21:55;;;;;;;6.07;3.70;;;;;;;;;;5063126;22;21019;-73
2021/05/02 04:24:22;;;;;;;6.57;3.40;;;;;;;;;;5037199;28;20430;-72
2021/05/02 04:26:48;;;;;;;7.07;3.60;;;;;;;;;;5036536;28;20902;-73
2021/05/02 04:29:15;;;;;;;8.67;5.20;;;;;;;;;;5049431;28;20421;-73
2021/05/02 04:31:41;;;;;;;7.90;4.60;;;;;;;;;;5055571;28;20512;-73
2021/05/02 04:34:08;;;;;;;9.63;5.43;;;;;;;;;;5056199;28;20472;-73
2021/05/02 04:36:34;;;;;;;7.30;5.00;;;;;;;;;;5056971;28;20906;-73
2021/05/02 04:39:00;;;;;;;6.83;4.83;;;;;;;;;;5054208;28;20933;-73
2021/05/02 04:41:27;;;;;;;9.10;5.87;;;;;;;;;;5056683;28;20466;-73
2021/05/02 04:43:53;;;;;;;9.60;5.53;;;;;;;;;;5055637;28;20430;-72
2021/05/02 04:46:19;;;;;;;7.43;5.17;;;;;;;;;;5056665;28;20398;-72
2021/05/02 04:48:45;;;;;;;9.60;6.30;;;;;;;;;;5054532;28;20423;-72
2021/05/02 04:51:13;;;;;;;9.83;6.70;;;;;;;;;;5056461;28;20413;-72
2021/05/02 04:53:40;;;;;;;8.27;5.70;;;;;;;;;;5053174;28;20463;-72
2021/05/02 04:56:06;;;;;;;7.13;5.10;;;;;;;;;;5036464;28;20436;-72
2021/05/02 04:58:32;;;;;;;10.07;6.10;;;;;;;;;;5043351;28;20516;-72
2021/05/02 05:00:58;;;;;;;10.33;6.83;;;;;;;;;;5055179;28;20489;-72
2021/05/02 05:03:25;;;;;;;8.40;5.20;;;;;;;;;;5055582;28;20411;-73
2021/05/02 05:05:51;;;;;;;8.63;5.37;;;;;;;;;;5051563;28;20406;-72
2021/05/02 05:08:17;;;;;;;8.90;5.90;;;;;;;;;;5036476;28;20801;-72
2021/05/02 05:10:43;;;;;;;7.87;5.63;;;;;;;;;;5053756;28;20555;-72
2021/05/02 05:13:09;;;;;;;7.23;4.60;;;;;;;;;;5056622;28;20505;-70
2021/05/02 05:15:36;;;;;;;6.40;4.27;;;;;;;;;;5055266;28;20864;-70
2021/05/02 05:18:02;;;;;;;6.43;3.87;;;;;;;;;;5056231;28;20924;-71
2021/05/02 05:20:28;;;;;;;6.50;4.77;;;;;;;;;;5038978;28;20458;-71
2021/05/02 05:22:54;;;;;;;6.77;4.27;;;;;;;;;;5044344;28;20450;-72
2021/05/02 05:25:20;;;;;;;9.97;6.00;;;;;;;;;;5054677;28;20421;-70
2021/05/02 05:27:46;;;;;;;6.40;4.80;;;;;;;;;;5055863;28;20465;-70
2021/05/02 05:30:13;;;;;;;7.90;5.30;;;;;;;;;;5054906;28;20531;-70
2021/05/02 05:32:40;;;;;;;8.43;6.37;;;;;;;;;;5056129;28;20572;-70
2021/05/02 05:35:06;;;;;;;11.10;5.73;;;;;;;;;;5054001;28;20794;-69
2021/05/02 05:37:32;;;;;;;9.53;5.67;;;;;;;;;;5055079;28;20947;-70
2021/05/02 05:39:59;;;;;;;7.30;5.40;;;;;;;;;;5057481;28;20477;-69
2021/05/02 05:42:25;;;;;;;7.30;5.27;;;;;;;;;;5056215;28;20767;-69
2021/05/02 05:44:51;;;;;;;8.20;5.60;;;;;;;;;;5054281;28;20434;-68
2021/05/02 05:47:18;;;;;;;8.17;6.77;;;;;;;;;;5055496;28;20555;-69
2021/05/02 05:49:44;;;;;;;9.13;5.80;;;;;;;;;;5053932;28;20467;-68
2021/05/02 05:52:11;;;;;;;9.93;6.57;;;;;;;;;;5055260;28;20425;-68
2021/05/02 05:54:37;;;;;;;10.93;6.67;;;;;;;;;;5054134;28;20424;-69
2021/05/02 05:57:04;;;;;;;12.43;6.73;;;;;;;;;;5053926;28;20400;-69
2021/05/02 05:59:30;;;;;;;8.77;6.07;;;;;;;;;;5053823;28;20505;-69
2021/05/02 06:01:56;;;;;;;9.50;6.43;;;;;;;;;;5054029;28;20504;-69
2021/05/02 06:04:22;;;;;;;10.03;7.27;;;;;;;;;;5052990;28;20469;-68
2021/05/02 06:06:48;;;;;;;9.60;6.10;;;;;;;;;;5054858;28;20437;-67
2021/05/02 06:09:14;;;;;;;8.00;5.53;;;;;;;;;;5054233;28;20409;-68
2021/05/02 06:11:40;;;;;;;7.60;6.13;;;;;;;;;;5054584;28;20521;-68
2021/05/02 06:14:08;;;;;;;7.03;5.80;;;;;;;;;;5055108;28;20402;-70
2021/05/02 06:16:34;;;;;;;10.00;6.40;;;;;;;;;;5053615;28;20435;-69
2021/05/02 06:19:00;;;;;;;9.27;6.10;;;;;;;;;;5054983;28;20399;-71
2021/05/02 06:21:27;;;;;;;11.57;6.53;;;;;;;;;;5053286;28;20520;-71
2021/05/02 06:23:53;;;;;;;10.47;6.97;;;;;;;;;;5054892;28;20745;-72
2021/05/02 06:26:20;;;;;;;11.50;7.93;;;;;;;;;;5053544;28;20436;-72
2021/05/02 06:28:46;;;;;;;14.03;7.67;;;;;;;;;;5054503;28;20417;-72
2021/05/02 06:31:13;;;;;;;10.60;7.10;;;;;;;;;;5052476;28;20565;-72
2021/05/02 06:33:39;;;;;;;9.33;7.10;;;;;;;;;;5053490;28;20942;-70
2021/05/02 06:36:06;;;;;;;9.30;7.20;;;;;;;;;;5053509;28;20436;-71
2021/05/02 06:38:32;;;;;;;13.63;9.00;;;;;;;;;;5053357;28;20506;-71
2021/05/02 06:40:58;;;;;;;13.63;9.43;;;;;;;;;;5053415;28;20846;-77
2021/05/02 06:43:24;;;;;;;14.67;9.40;;;;;;;;;;5054229;28;20494;-76
2021/05/02 06:45:51;;;;;;;13.03;9.30;;;;;;;;;;5047277;28;20555;-70
2021/05/02 06:48:17;;;;;;;15.33;10.07;;;;;;;;;;5050553;28;20422;-74
2021/05/02 06:50:43;;;;;;;12.73;8.27;;;;;;;;;;5053835;28;20442;-74
2021/05/02 06:53:09;;;;;;;16.57;10.53;;;;;;;;;;5054300;28;20797;-72
2021/05/02 06:55:35;;;;;;;19.97;11.97;;;;;;;;;;5052584;28;20415;-76
2021/05/02 06:58:01;;;;;;;17.47;11.37;;;;;;;;;;5054362;28;20413;-72
2021/05/02 07:00:28;;;;;;;15.23;10.07;;;;;;;;;;5053116;28;20587;-74
2021/05/02 07:02:54;;;;;;;22.07;12.20;;;;;;;;;;5054357;28;20425;-71
2021/05/02 07:05:20;;;;;;;15.20;11.20;;;;;;;;;;5052387;28;20405;-74
2021/05/02 07:07:46;;;;;;;20.67;12.30;;;;;;;;;;5036002;28;20897;-74
2021/05/02 07:10:13;;;;;;;20.60;12.90;;;;;;;;;;5034077;28;20545;-74
2021/05/02 07:12:39;;;;;;;18.60;12.87;;;;;;;;;;5053704;28;20545;-74
2021/05/02 07:15:05;;;;;;;17.50;12.20;;;;;;;;;;5053933;28;20410;-76
2021/05/02 07:17:32;;;;;;;20.27;12.40;;;;;;;;;;5053354;28;20484;-76
2021/05/02 07:19:58;;;;;;;20.50;12.83;;;;;;;;;;5053955;28;20408;-75
2021/05/02 07:22:26;;;;;;;22.57;12.70;;;;;;;;;;5053253;28;20474;-77
2021/05/02 07:24:52;;;;;;;23.90;13.10;;;;;;;;;;5054420;28;20434;-76
2021/05/02 07:27:19;;;;;;;21.67;12.77;;;;;;;;;;5051556;28;20433;-76
2021/05/02 07:29:45;;;;;;;20.10;12.30;;;;;;;;;;5055244;28;20409;-75
2021/05/02 07:32:11;;;;;;;21.57;13.37;;;;;;;;;;5052803;28;20446;-78
2021/05/02 07:34:37;;;;;;;21.20;12.77;;;;;;;;;;5054699;28;20449;-77
2021/05/02 07:37:03;;;;;;;21.13;12.60;;;;;;;;;;5047919;28;20879;-75
2021/05/02 07:39:29;;;;;;;20.93;14.33;;;;;;;;;;5047890;28;20414;-76
2021/05/02 07:41:55;;;;;;;24.97;14.40;;;;;;;;;;5039788;28;20485;-76
2021/05/02 07:44:21;;;;;;;25.13;15.67;;;;;;;;;;5033699;28;20407;-76
2021/05/02 07:46:48;;;;;;;27.47;15.90;;;;;;;;;;5046429;28;20507;-76
2021/05/02 07:49:14;;;;;;;33.90;16.70;;;;;;;;;;5053640;28;20778;-75
2021/05/02 07:51:40;;;;;;;27.60;16.90;;;;;;;;;;5053635;28;20501;-76
2021/05/02 07:54:06;;;;;;;30.07;17.67;;;;;;;;;;5052732;28;20985;-79
2021/05/02 07:56:32;;;;;;;28.00;16.90;;;;;;;;;;5052215;28;20462;-77
2021/05/02 07:58:58;;;;;;;25.70;16.73;;;;;;;;;;5053700;28;20429;-77
2021/05/02 08:01:24;;;;;;;26.60;16.00;;;;;;;;;;5052251;28;20502;-75
2021/05/02 08:03:50;;;;;;;27.73;17.87;;;;;;;;;;5053261;28;20410;-76
2021/05/02 08:06:16;;;;;;;22.40;13.60;;;;;;;;;;5052474;28;20428;-76
2021/05/02 08:08:42;;;;;;;25.80;16.67;;;;;;;;;;5053008;28;20405;-76
2021/05/02 08:11:08;;;;;;;23.63;15.57;;;;;;;;;;5052015;28;20431;-77
2021/05/02 08:13:36;;;;;;;26.63;15.33;;;;;;;;;;5053949;28;20407;-76
2021/05/02 08:16:02;;;;;;;26.10;15.53;;;;;;;;;;5047773;28;20430;-75
2021/05/02 08:18:28;;;;;;;27.50;17.70;;;;;;;;;;5033279;28;20979;-77
2021/05/02 08:20:54;;;;;;;30.07;17.37;;;;;;;;;;5036571;28;20949;-74
2021/05/02 08:23:20;;;;;;;29.47;17.87;;;;;;;;;;5053234;28;20602;-76
2021/05/02 08:25:46;;;;;;;28.37;17.83;;;;;;;;;;5052559;28;20426;-76
2021/05/02 08:28:12;;;;;;;26.60;18.33;;;;;;;;;;5053415;28;20497;-75
2021/05/02 08:30:38;;;;;;;31.60;18.13;;;;;;;;;;5050755;28;20430;-75
2021/05/02 08:33:05;;;;;;;29.47;18.70;;;;;;;;;;5052777;28;20969;-75
2021/05/02 08:35:31;;;;;;;26.37;16.03;;;;;;;;;;5051168;28;20436;-76
2021/05/02 08:37:57;;;;;;;26.70;16.73;;;;;;;;;;5052615;28;20412;-76
2021/05/02 08:40:23;;;;;;;26.97;16.40;;;;;;;;;;5053168;28;20445;-75
2021/05/02 08:42:49;;;;;;;21.37;15.57;;;;;;;;;;5050635;28;20448;-75
2021/05/02 08:45:15;;;;;;;24.60;14.83;;;;;;;;;;5052848;28;20398;-76
2021/05/02 08:47:41;;;;;;;31.30;17.90;;;;;;;;;;5051903;28;20939;-75
2021/05/02 08:50:09;;;;;;;35.63;19.40;;;;;;;;;;5052669;28;20474;-75
2021/05/02 08:52:35;;;;;;;31.53;20.57;;;;;;;;;;5051314;28;20457;-75
2021/05/02 08:55:03;;;;;;;29.10;18.97;;;;;;;;;;5051059;28;20524;-75
2021/05/02 08:57:29;;;;;;;29.00;19.37;;;;;;;;;;5051391;28;20914;-75
2021/05/02 08:59:55;;;;;;;35.40;22.80;;;;;;;;;;5052726;28;20436;-75
2021/05/02 09:02:25;;;;;;;33.07;21.60;;;;;;;;;;5051555;28;20461;-75
2021/05/02 09:05:03;;;;;;;30.47;21.93;;;;;;;;;;5052507;28;20909;-75
2021/05/02 09:07:40;;;;;;;40.03;23.03;;;;;;;;;;5039922;28;20437;-75
2021/05/02 09:10:06;;;;;;;33.17;22.57;;;;;;;;;;5032465;28;20421;-75
2021/05/02 09:12:32;;;;;;;32.23;22.53;;;;;;;;;;5049449;28;20508;-75
2021/05/02 09:14:58;;;;;;;38.90;23.20;;;;;;;;;;5056164;28;20770;-75
2021/05/02 09:17:29;;;;;;;25.30;18.90;;;;;;;;;;5053408;28;20797;-75
2021/05/02 09:19:56;;;;;;;30.07;22.40;;;;;;;;;;5056199;28;20890;-74
2021/05/02 09:22:23;;;;;;;31.27;22.73;;;;;;;;;;5054453;28;20464;-76
2021/05/02 09:25:18;;;;;;;35.60;23.13;;;;;;;;;;5055918;28;20404;-76
2021/05/02 09:27:48;;;;;;;36.37;23.07;;;;;;;;;;5038109;28;20444;-75
2021/05/02 09:30:16;;;;;;;35.73;23.73;;;;;;;;;;5056214;28;20494;-75
2021/05/02 09:32:44;;;;;;;31.60;22.10;;;;;;;;;;5054662;28;20935;-75
2021/05/02 09:35:27;;;;;;;33.97;23.77;;;;;;;;;;5055697;28;20465;-75
2021/05/02 09:38:07;;;;;;;29.20;20.60;;;;;;;;;;5055009;28;20951;-75
2021/05/02 09:40:43;;;;;;;31.47;22.10;;;;;;;;;;5055878;28;20442;-75
2021/05/02 09:43:12;;;;;;;28.80;20.40;;;;;;;;;;5054110;28;20454;-75
2021/05/02 09:45:38;;;;;;;31.30;21.80;;;;;;;;;;5053482;28;20427;-75
2021/05/02 09:48:05;;;;;;;26.47;20.57;;;;;;;;;;5054719;28;20472;-75
2021/05/02 09:50:35;;;;;;;27.00;18.70;;;;;;;;;;5056720;28;20462;-74
2021/05/02 09:53:02;;;;;;;25.00;18.27;;;;;;;;;;5055505;28;20480;-75
2021/05/02 09:55:33;;;;;;;25.67;18.17;;;;;;;;;;5056155;28;20763;-74
2021/05/02 09:58:12;;;;;;;27.67;18.37;;;;;;;;;;5043118;28;20428;-75
2021/05/02 10:00:40;;;;;;;26.07;18.40;;;;;;;;;;5035920;28;20511;-74
2021/05/02 10:03:16;;;;;;;24.90;18.00;;;;;;;;;;5050052;28;21094;-74
2021/05/02 10:05:53;;;;;;;22.60;17.13;;;;;;;;;;5055174;28;20885;-75
2021/05/02 10:08:22;;;;;;;24.60;16.40;;;;;;;;;;5054249;28;20786;-76
2021/05/02 10:10:48;;;;;;;22.80;15.50;;;;;;;;;;5055292;28;20403;-75
2021/05/02 10:13:14;;;;;;;19.97;14.90;;;;;;;;;;5054143;28;20893;-76
2021/05/02 10:15:41;;;;;;;22.67;16.30;;;;;;;;;;5054908;28;20399;-75
2021/05/02 10:18:07;;;;;;;21.50;14.83;;;;;;;;;;5053982;28;20940;-75
2021/05/02 10:20:33;;;;;;;22.00;15.20;;;;;;;;;;5052541;28;20549;-74
2021/05/02 10:22:59;;;;;;;19.70;14.20;;;;;;;;;;5089512;23;20500;-77
2021/05/02 10:25:26;;;;;;;19.20;15.37;;;;;;;;;;5056413;28;20404;-77
2021/05/02 10:27:52;;;;;;;18.10;14.03;;;;;;;;;;5046663;28;20429;-77
2021/05/02 10:30:21;;;;;;;18.57;12.87;;;;;;;;;;5073266;28;20467;-76
2021/05/02 10:32:52;;;;;;;16.80;13.90;;;;;;;;;;5054743;28;20452;-76
2021/05/02 10:35:18;;;;;;;12.57;9.63;;;;;;;;;;5054575;28;20408;-76
2021/05/02 10:37:54;;;;;;;18.23;11.80;;;;;;;;;;5036518;28;20498;-75
2021/05/02 10:40:20;;;;;;;12.83;9.87;;;;;;;;;;5074278;28;20445;-75
2021/05/02 10:42:59;;;;;;;16.20;12.90;;;;;;;;;;5054693;28;20422;-74
2021/05/02 10:45:28;;;;;;;16.87;12.33;;;;;;;;;;5036486;28;20404;-76
2021/05/02 10:47:55;;;;;;;17.23;12.57;;;;;;;;;;5055239;28;20421;-75
2021/05/02 10:50:25;;;;;;;16.23;12.23;;;;;;;;;;5074341;28;20504;-76
2021/05/02 10:53:13;;;;;;;18.57;14.73;;;;;;;;;;5072733;28;20422;-76
2021/05/02 10:55:48;;;;;;;18.03;13.60;;;;;;;;;;5073973;28;20390;-75
2021/05/02 10:58:34;;;;;;;18.77;13.80;;;;;;;;;;5055037;28;20875;-75
2021/05/02 11:01:02;;;;;;;20.60;15.00;;;;;;;;;;5055023;28;20463;-75
2021/05/02 11:03:40;;;;;;;19.60;15.07;;;;;;;;;;5072719;28;20452;-75
2021/05/02 11:06:07;;;;;;;20.07;14.47;;;;;;;;;;5073865;28;20786;-76
2021/05/02 11:08:51;;;;;;;18.33;13.87;;;;;;;;;;5071179;28;20461;-79
2021/05/02 11:11:37;;;;;;;16.60;13.87;;;;;;;;;;5059517;28;20406;-78
2021/05/02 11:14:09;;;;;;;16.73;13.73;;;;;;;;;;5062979;28;20493;-75
2021/05/02 11:16:39;;;;;;;18.97;14.63;;;;;;;;;;5053444;28;20971;-75
2021/05/02 11:19:06;;;;;;;14.80;12.87;;;;;;;;;;5063129;28;20433;-75
2021/05/02 11:24:14;;;;;;;13.93;12.03;;;;;;;;;;5071158;28;20432;-75
2021/05/02 11:26:51;;;;;;;19.03;14.07;;;;;;;;;;5073143;28;20398;-75
2021/05/02 11:29:20;;;;;;;17.73;14.13;;;;;;;;;;5072548;28;20423;-75
2021/05/02 11:31:47;;;;;;;18.23;14.67;;;;;;;;;;5073200;28;20431;-75
2021/05/02 11:34:13;;;;;;;17.23;14.20;;;;;;;;;;5070703;28;20430;-75
2021/05/02 11:36:40;;;;;;;17.90;15.73;;;;;;;;;;5073715;28;20453;-75
2021/05/02 11:39:06;;;;;;;18.40;14.70;;;;;;;;;;5072848;28;20429;-76
2021/05/02 11:41:58;;;;;;;21.70;16.00;;;;;;;;;;5073922;28;20449;-75
2021/05/02 11:44:24;;;;;;;20.60;14.27;;;;;;;;;;5057892;28;20447;-76
2021/05/02 11:46:50;;;;;;;21.13;16.13;;;;;;;;;;5053207;28;20413;-75
2021/05/02 11:49:16;;;;;;;20.70;16.13;;;;;;;;;;5063090;28;20421;-75
2021/05/02 11:51:43;;;;;;;20.30;16.70;;;;;;;;;;5073028;28;20422;-75
2021/05/02 11:54:12;;;;;;;22.23;17.83;;;;;;;;;;5072289;28;20817;-75
2021/05/02 11:56:40;;;;;;;21.33;17.13;;;;;;;;;;5073108;28;20407;-76
2021/05/02 11:59:06;;;;;;;24.97;17.97;;;;;;;;;;5063995;28;20499;-76
2021/05/02 12:01:33;;;;;;;21.63;15.80;;;;;;;;;;5052648;28;20474;-77
2021/05/02 12:04:02;;;;;;;17.73;14.33;;;;;;;;;;5059449;28;20797;-76
2021/05/02 12:06:30;;;;;;;16.97;13.50;;;;;;;;;;5065268;28;20466;-75
2021/05/02 12:08:57;;;;;;;19.17;14.97;;;;;;;;;;5041052;28;20430;-75
2021/05/02 12:11:24;;;;;;;15.93;13.13;;;;;;;;;;5072893;28;20467;-75
2021/05/02 12:13:52;;;;;;;17.80;14.00;;;;;;;;;;5070786;28;20437;-75
2021/05/02 12:16:18;;;;;;;15.50;13.63;;;;;;;;;;5072986;28;20415;-75
2021/05/02 12:18:54;;;;;;;15.97;13.33;;;;;;;;;;5053819;28;20749;-75
2021/05/02 12:21:25;;;;;;;18.37;14.43;;;;;;;;;;5072720;28;20445;-75
2021/05/02 12:23:51;;;;;;;15.80;14.10;;;;;;;;;;5071950;28;20468;-75
2021/05/02 12:26:18;;;;;;;17.53;13.90;;;;;;;;;;5072902;28;20402;-76
2021/05/02 12:28:44;;;;;;;14.67;13.07;;;;;;;;;;5054055;28;20513;-75
2021/05/02 12:31:12;;;;;;;14.07;12.57;;;;;;;;;;5072666;28;20408;-75
2021/05/02 12:33:39;;;;;;;17.17;14.30;;;;;;;;;;5071893;28;20458;-75
2021/05/02 12:36:09;;;;;;;16.60;13.40;;;;;;;;;;5054580;28;20791;-75
2021/05/02 12:38:36;;;;;;;21.13;15.27;;;;;;;;;;5053773;28;21047;-75
2021/05/02 12:41:02;;;;;;;17.37;13.07;;;;;;;;;;5072614;28;20863;-76
2021/05/02 12:43:29;;;;;;;18.03;14.70;;;;;;;;;;5071766;28;20430;-76
2021/05/02 12:45:55;;;;;;;19.23;14.03;;;;;;;;;;5071164;28;20422;-76
2021/05/02 12:48:48;;;;;;;17.53;14.97;;;;;;;;;;5075117;28;20409;-75
2021/05/02 12:51:27;;;;;;;21.17;15.63;;;;;;;;;;5064270;28;20429;-77
2021/05/02 12:53:53;;;;;;;19.73;16.57;;;;;;;;;;5053167;28;20424;-75
2021/05/02 12:56:23;;;;;;;22.20;16.37;;;;;;;;;;5058050;28;20407;-72
2021/05/02 12:58:50;;;;;;;17.07;14.90;;;;;;;;;;5041140;28;20430;-74
2021/05/02 13:01:17;;;;;;;21.43;17.43;;;;;;;;;;5060578;28;20451;-75
2021/05/02 13:03:58;;;;;;;17.67;15.67;;;;;;;;;;5078458;28;20435;-74
2021/05/02 13:06:24;;;;;;;17.00;14.97;;;;;;;;;;5079932;28;20412;-74
2021/05/02 13:08:58;;;;;;;21.87;15.90;;;;;;;;;;5079453;28;20429;-74
2021/05/02 13:11:24;;;;;;;19.20;16.43;;;;;;;;;;5076470;28;20450;-74
2021/05/02 13:14:09;;;;;;;18.60;15.80;;;;;;;;;;5073239;28;20455;-74
2021/05/02 13:16:48;;;;;;;19.10;15.93;;;;;;;;;;5076840;28;20478;-73
2021/05/02 13:19:55;;;;;;;21.73;17.50;;;;;;;;;;5075728;28;20421;-74
2021/05/02 13:22:25;;;;;;;20.00;16.00;;;;;;;;;;5076128;28;20498;-74
2021/05/02 13:24:54;;;;;;;20.37;15.80;;;;;;;;;;5057488;28;20562;-73
2021/05/02 13:27:33;;;;;;;20.47;16.17;;;;;;;;;;5076139;28;20452;-73
2021/05/02 13:29:59;;;;;;;17.50;15.13;;;;;;;;;;5057115;28;20915;-74
2021/05/02 13:32:25;;;;;;;23.10;17.33;;;;;;;;;;5074855;28;20934;-73
2021/05/02 13:34:51;;;;;;;18.60;16.70;;;;;;;;;;5075056;28;20950;-74
2021/05/02 13:37:17;;;;;;;20.23;18.03;;;;;;;;;;5076233;28;20396;-74
2021/05/02 13:39:44;;;;;;;20.13;16.70;;;;;;;;;;5057222;28;20459;-74
2021/05/02 13:42:11;;;;;;;20.03;17.00;;;;;;;;;;5075801;28;20487;-73
2021/05/02 13:44:37;;;;;;;22.93;16.73;;;;;;;;;;5074314;28;20802;-73
2021/05/02 13:47:03;;;;;;;18.60;16.17;;;;;;;;;;5075971;28;20453;-73
2021/05/02 13:49:29;;;;;;;17.10;14.63;;;;;;;;;;5057026;28;20412;-74
2021/05/02 13:51:56;;;;;;;17.73;15.70;;;;;;;;;;5057717;28;20802;-73
2021/05/02 13:54:22;;;;;;;18.73;16.50;;;;;;;;;;5075060;28;20755;-75
2021/05/02 13:56:48;;;;;;;20.60;16.93;;;;;;;;;;5075725;28;20755;-74
2021/05/02 13:59:14;;;;;;;18.90;15.90;;;;;;;;;;5073912;28;20455;-75
2021/05/02 14:01:42;;;;;;;20.40;15.17;;;;;;;;;;5074755;28;20466;-74
2021/05/02 14:04:08;;;;;;;19.07;15.40;;;;;;;;;;5057359;28;20422;-73
2021/05/02 14:06:34;;;;;;;20.20;16.70;;;;;;;;;;5056417;28;20514;-74
2021/05/02 14:09:00;;;;;;;18.83;16.83;;;;;;;;;;5075506;28;20407;-73
2021/05/02 14:11:27;;;;;;;20.33;15.80;;;;;;;;;;5074162;28;20428;-73
2021/05/02 14:13:54;;;;;;;20.10;15.77;;;;;;;;;;5074997;28;20818;-73
2021/05/02 14:16:20;;;;;;;16.53;14.40;;;;;;;;;;5074010;28;20843;-73
2021/05/02 14:18:46;;;;;;;17.70;15.80;;;;;;;;;;5056888;28;20406;-74
2021/05/02 14:21:12;;;;;;;20.67;15.00;;;;;;;;;;5073805;28;20464;-74
2021/05/02 14:23:39;;;;;;;17.70;14.67;;;;;;;;;;5056729;28;21055;-74
2021/05/02 14:26:05;;;;;;;18.37;15.20;;;;;;;;;;5073685;28;20436;-74
2021/05/02 14:28:31;;;;;;;17.40;15.50;;;;;;;;;;5075162;28;20813;-73
2021/05/02 14:30:58;;;;;;;17.33;15.50;;;;;;;;;;5074239;28;20489;-74
2021/05/02 14:33:24;;;;;;;17.83;15.80;;;;;;;;;;5056132;28;20447;-73
2021/05/02 14:35:50;;;;;;;16.77;14.40;;;;;;;;;;5065773;28;20433;-74
2021/05/02 14:38:16;;;;;;;18.00;14.87;;;;;;;;;;5054528;28;20416;-74